Gdynia, Poland
Current Conditions -  °F | °C
As of 10:30 AM on Tuesday 21 Oct 2014 (Local Time) from EPGD Reporting Station
Broken Clouds Broken Clouds  
Wind Chill: 52°   Ceiling: 2100
Heat Index: 52°   Visibility: 5mi
Dew Point: 50°   Wind: 5mph
Humidity: 94%   Direction: 250°WSW
Pressure: 29.71"   Gusts: NA
Location:  54.52°N, 18.53°E
Report Text: EPGD 210830Z 25004KT 210V280 8000 FEW009 BKN021 11/10 Q1006
Loading
Personal Weather Stations






























Interactive Weather Map
Tropical Storm Tracking
New forecast layout! Learn more

10-Day Weather Forecast

Advertisements
Track Severe Weather on mobile